Time;durP1;ratioP1;P1;durP2;ratioP2;P2;SDS_P1;SDS_P2;PMS_P1;PMS_P2;Temp;Humidity;BMP_temperature;BMP_pressure;BME280_temperature;BME280_humidity;BME280_pressure;Samples;Min_cycle;Max_cycle;Signal;HPM_P1;HPM_P2
2022/09/01 00:00:14;;;;;;;2.47;0.70;;;;;;;16.56;82.20;101705.72;5073576;28;20138;-77
2022/09/01 00:02:49;;;;;;;2.60;0.70;;;;;;;16.44;82.41;101693.91;5052567;28;20123;-78
2022/09/01 00:05:23;;;;;;;2.05;0.90;;;;;;;16.44;82.47;101699.44;5041962;28;20044;-78
2022/09/01 00:07:49;;;;;;;3.10;0.80;;;;;;;16.47;82.67;101697.25;5067012;28;20037;-77
2022/09/01 00:10:16;;;;;;;2.78;0.80;;;;;;;16.44;82.83;101700.28;5047618;28;20064;-78
2022/09/01 00:12:44;;;;;;;6.97;0.98;;;;;;;16.39;83.02;101696.19;5056003;28;20037;-78
2022/09/01 00:15:13;;;;;;;4.63;1.00;;;;;;;16.27;83.55;101690.78;5045535;28;20043;-78
2022/09/01 00:17:39;;;;;;;5.97;1.02;;;;;;;16.24;83.09;101698.47;5038892;28;20037;-78
2022/09/01 00:20:06;;;;;;;4.95;0.90;;;;;;;16.29;83.52;101694.25;5058766;28;20059;-77
2022/09/01 00:22:34;;;;;;;3.35;0.70;;;;;;;16.16;84.38;101693.63;5051717;28;20104;-78
2022/09/01 00:25:00;;;;;;;1.58;0.82;;;;;;;16.12;84.33;101697.69;5061819;28;20107;-77
2022/09/01 00:27:30;;;;;;;0.90;0.70;;;;;;;16.11;85.02;101699.56;5065018;28;20128;-78
2022/09/01 00:29:59;;;;;;;5.90;0.82;;;;;;;16.08;85.69;101705.34;5055056;28;20443;-78
2022/09/01 00:32:25;;;;;;;2.08;0.82;;;;;;;16.01;85.76;101695.00;5056434;28;20037;-78
2022/09/01 00:34:51;;;;;;;1.75;0.90;;;;;;;15.97;86.03;101691.59;5046644;28;20020;-78
2022/09/01 00:37:18;;;;;;;2.22;1.00;;;;;;;15.89;87.08;101694.19;5048355;28;20048;-77
2022/09/01 00:39:43;;;;;;;2.25;0.85;;;;;;;15.89;87.04;101686.78;5062975;28;20064;-77
2022/09/01 00:42:09;;;;;;;5.20;1.10;;;;;;;15.84;87.72;101696.47;5047510;28;20043;-78
2022/09/01 00:44:37;;;;;;;4.95;0.88;;;;;;;15.87;86.82;101694.34;5041339;28;20040;-77
2022/09/01 00:47:05;;;;;;;1.75;0.80;;;;;;;15.88;87.70;101693.31;5038298;28;20381;-77
2022/09/01 00:49:37;;;;;;;5.55;1.10;;;;;;;15.83;87.29;101689.22;5055294;28;20040;-76
2022/09/01 00:52:39;;;;;;;2.30;1.10;;;;;;;15.82;88.21;101696.59;5068998;28;20025;-77
2022/09/01 00:55:22;;;;;;;4.85;1.02;;;;;;;15.71;89.67;101692.00;5065068;28;20112;-77
2022/09/01 00:57:48;;;;;;;3.30;1.05;;;;;;;15.66;89.89;101685.13;5061684;28;20025;-77
2022/09/01 01:00:19;;;;;;;2.55;1.00;;;;;;;15.68;89.85;101686.75;5059446;28;20037;-77
2022/09/01 01:02:54;;;;;;;3.58;0.93;;;;;;;15.58;91.65;101681.16;5042380;28;20047;-77
2022/09/01 01:05:31;;;;;;;3.13;1.10;;;;;;;15.58;91.75;101683.91;5057327;28;20028;-78
2022/09/01 01:08:02;;;;;;;2.78;0.80;;;;;;;15.56;91.23;101685.06;5058403;28;20029;-78
2022/09/01 01:10:34;;;;;;;4.80;1.20;;;;;;;15.54;92.14;101679.66;5068845;28;20067;-78
2022/09/01 01:13:07;;;;;;;2.45;0.93;;;;;;;15.34;93.65;101677.78;5075502;28;20499;-78
2022/09/01 01:15:36;;;;;;;1.65;0.98;;;;;;;15.46;93.40;101678.59;5065825;28;20017;-78
2022/09/01 01:18:13;;;;;;;11.38;1.10;;;;;;;15.37;94.33;101669.22;5066830;28;20036;-78
2022/09/01 01:23:50;;;;;;;9.95;1.48;;;;;;;15.32;95.73;101675.16;5060480;28;20037;-78
2022/09/01 01:26:16;;;;;;;1.98;1.00;;;;;;;15.26;95.75;101681.19;5055532;28;20033;-78
2022/09/01 01:28:53;;;;;;;4.47;1.30;;;;;;;15.25;97.40;101677.56;5030615;28;20035;-78
2022/09/01 01:31:24;;;;;;;5.07;1.20;;;;;;;15.17;97.72;101680.09;5055634;28;20178;-78
2022/09/01 01:33:53;;;;;;;2.20;1.20;;;;;;;15.20;98.09;101668.81;5088173;28;20455;-78
2022/09/01 01:36:34;;;;;;;2.38;1.10;;;;;;;15.10;98.25;101673.34;5059980;28;20054;-77
2022/09/01 01:39:07;;;;;;;2.78;1.00;;;;;;;15.18;98.51;101681.88;5071205;28;20036;-78
2022/09/01 01:41:39;;;;;;;2.53;1.00;;;;;;;15.15;99.09;101689.50;5054623;28;20037;-78
2022/09/01 01:44:07;;;;;;;2.95;0.98;;;;;;;15.10;99.96;101687.13;5055870;28;20393;-77
2022/09/01 01:46:35;;;;;;;6.05;1.17;;;;;;;15.04;100.00;101684.91;5055974;28;20041;-78
2022/09/01 01:49:03;;;;;;;6.72;1.15;;;;;;;15.00;100.00;101689.81;5066962;28;20385;-77
2022/09/01 01:51:30;;;;;;;5.38;1.10;;;;;;;15.03;100.00;101688.66;5044637;28;20044;-79
2022/09/01 01:54:01;;;;;;;5.45;1.02;;;;;;;14.92;100.00;101692.34;5062448;28;20051;-78
2022/09/01 01:56:27;;;;;;;2.53;1.15;;;;;;;14.93;100.00;101687.69;5063371;28;20033;-78
2022/09/01 01:58:55;;;;;;;2.08;1.27;;;;;;;14.86;100.00;101688.22;5076954;28;20028;-78
2022/09/01 02:01:24;;;;;;;3.85;1.00;;;;;;;14.88;100.00;101688.09;5067842;28;20044;-78
2022/09/01 02:03:53;;;;;;;3.95;1.10;;;;;;;14.83;100.00;101693.13;5063847;28;20040;-78
2022/09/01 02:06:24;;;;;;;5.03;1.10;;;;;;;14.81;100.00;101687.72;5070398;28;20032;-78
2022/09/01 02:08:56;;;;;;;2.20;1.00;;;;;;;14.80;100.00;101687.84;5064461;28;20090;-80
2022/09/01 02:11:24;;;;;;;4.22;1.10;;;;;;;14.78;100.00;101689.88;5083343;28;20369;-77
2022/09/01 02:13:56;;;;;;;3.20;1.13;;;;;;;14.85;100.00;101680.06;5054289;28;20021;-77
2022/09/01 02:16:32;;;;;;;3.55;0.95;;;;;;;14.78;100.00;101682.47;5060855;28;20029;-77
2022/09/01 02:19:06;;;;;;;1.98;1.00;;;;;;;14.78;100.00;101687.13;5052067;28;20033;-78
2022/09/01 02:21:33;;;;;;;1.65;1.10;;;;;;;14.75;100.00;101688.22;5063793;28;20037;-78
2022/09/01 02:24:07;;;;;;;1.98;1.23;;;;;;;14.76;100.00;101689.09;5061876;28;20419;-77
2022/09/01 02:26:46;;;;;;;8.07;1.33;;;;;;;14.68;100.00;101687.88;5060772;28;20029;-77
2022/09/01 02:29:19;;;;;;;1.92;1.10;;;;;;;14.69;100.00;101688.75;5080997;28;20474;-78
2022/09/01 02:31:48;;;;;;;3.90;1.15;;;;;;;14.68;100.00;101682.34;5063742;28;20036;-77
2022/09/01 02:34:15;;;;;;;3.42;1.17;;;;;;;14.74;100.00;101686.50;5042280;28;20417;-77
2022/09/01 02:36:47;;;;;;;5.38;0.90;;;;;;;14.65;100.00;101682.59;5068244;28;20071;-78
2022/09/01 02:39:19;;;;;;;4.82;1.10;;;;;;;14.66;100.00;101689.03;5071116;28;20044;-77
2022/09/01 02:41:44;;;;;;;7.75;1.23;;;;;;;14.60;100.00;101689.53;5050760;28;20047;-79
2022/09/01 02:44:20;;;;;;;3.00;1.75;;;;;;;14.68;100.00;101682.34;5052514;28;20040;-77
2022/09/01 02:46:53;;;;;;;1.83;1.08;;;;;;;14.60;100.00;101681.25;5069127;28;20021;-78
2022/09/01 02:49:27;;;;;;;4.85;1.33;;;;;;;14.64;100.00;101679.97;5075413;28;20063;-77
2022/09/01 02:51:56;;;;;;;2.58;1.02;;;;;;;14.63;100.00;101694.78;5053968;28;20029;-77
2022/09/01 02:54:26;;;;;;;4.80;1.40;;;;;;;14.61;100.00;101685.75;5065884;28;20480;-78
2022/09/01 02:56:53;;;;;;;5.50;1.23;;;;;;;14.71;100.00;101684.00;5052725;28;20025;-78
2022/09/01 02:59:26;;;;;;;3.92;0.90;;;;;;;14.59;100.00;101676.69;5057061;28;20437;-78
2022/09/01 03:01:56;;;;;;;3.75;1.20;;;;;;;14.63;100.00;101678.25;5067703;28;20115;-77
2022/09/01 03:04:25;;;;;;;4.03;1.20;;;;;;;14.59;100.00;101671.19;5077861;28;20067;-76
2022/09/01 03:06:57;;;;;;;4.68;1.65;;;;;;;14.51;100.00;101671.81;5075268;28;20037;-78
2022/09/01 03:09:23;;;;;;;6.32;1.38;;;;;;;14.47;100.00;101668.44;5057265;28;20082;-78
2022/09/01 03:11:52;;;;;;;6.75;1.40;;;;;;;14.55;100.00;101676.09;5061784;28;20043;-77
2022/09/01 03:14:23;;;;;;;2.33;1.10;;;;;;;14.38;100.00;101673.84;5075088;28;20034;-77
2022/09/01 03:16:59;;;;;;;9.15;1.30;;;;;;;14.36;100.00;101665.69;5058479;28;20171;-78
2022/09/01 03:19:25;;;;;;;8.35;1.50;;;;;;;14.36;100.00;101668.44;5067025;28;20108;-78
2022/09/01 03:21:50;;;;;;;1.60;1.10;;;;;;;14.34;100.00;101671.31;5072419;28;20048;-78
2022/09/01 03:24:17;;;;;;;3.35;1.00;;;;;;;14.30;100.00;101669.84;5057005;28;20037;-77
2022/09/01 03:26:45;;;;;;;5.10;1.33;;;;;;;14.33;100.00;101679.72;5056151;28;20037;-77
2022/09/01 03:29:14;;;;;;;5.35;1.48;;;;;;;14.26;100.00;101675.72;5061000;28;20063;-78
2022/09/01 03:31:45;;;;;;;6.38;1.13;;;;;;;14.24;100.00;101673.09;5043960;28;20066;-77
2022/09/01 03:34:20;;;;;;;;;;;;;;;14.20;100.00;101674.34;5072298;28;20763;-77
2022/09/01 03:36:49;;;;;;;4.85;1.70;;;;;;;14.18;100.00;101675.47;5057678;28;19924;-78
2022/09/01 03:39:21;;;;;;;2.97;1.23;;;;;;;14.07;100.00;101670.81;5059157;28;20099;-79
2022/09/01 03:41:46;;;;;;;4.75;1.40;;;;;;;14.01;100.00;101674.09;5049838;28;20511;-79
2022/09/01 03:44:15;;;;;;;2.95;1.38;;;;;;;14.08;100.00;101667.06;5048583;28;20055;-79
2022/09/01 03:46:51;;;;;;;4.05;1.33;;;;;;;14.04;100.00;101671.97;5045462;28;20042;-78
2022/09/01 03:49:26;;;;;;;9.77;1.20;;;;;;;13.85;100.00;101672.56;5063023;28;20037;-77
2022/09/01 03:51:57;;;;;;;5.88;1.30;;;;;;;13.76;100.00;101674.19;5075677;28;20025;-78
2022/09/01 03:54:29;;;;;;;3.92;1.40;;;;;;;13.78;100.00;101676.81;5070157;28;20040;-78
2022/09/01 03:57:05;;;;;;;8.75;1.30;;;;;;;13.71;100.00;101670.91;5056940;28;20047;-78
2022/09/01 03:59:32;;;;;;;3.30;1.55;;;;;;;13.74;100.00;101675.28;5048185;28;20046;-78
2022/09/01 04:01:59;;;;;;;3.60;1.10;;;;;;;13.76;100.00;101673.31;5059615;28;20079;-78
2022/09/01 04:04:25;;;;;;;4.85;1.42;;;;;;;13.73;100.00;101657.91;5071897;28;20036;-77
2022/09/01 04:06:56;;;;;;;5.45;1.17;;;;;;;13.60;100.00;101663.50;5060132;28;20086;-77
2022/09/01 04:09:27;;;;;;;10.10;1.35;;;;;;;13.63;100.00;101669.78;5060302;28;20048;-78
2022/09/01 04:11:53;;;;;;;3.50;1.48;;;;;;;13.58;100.00;101667.38;5060661;28;20033;-78
2022/09/01 04:14:24;;;;;;;2.33;1.20;;;;;;;13.44;100.00;101660.22;5074146;28;20115;-77
2022/09/01 04:19:38;;;;;;;10.55;1.50;;;;;;;13.54;100.00;101669.50;5057769;28;20045;-78
2022/09/01 04:22:14;;;;;;;7.10;1.10;;;;;;;13.57;100.00;101662.88;5068462;28;20025;-77
2022/09/01 04:24:44;;;;;;;7.78;1.50;;;;;;;13.47;100.00;101670.09;5071890;28;20492;-78
2022/09/01 04:27:12;;;;;;;4.25;1.50;;;;;;;13.42;100.00;101670.47;5061118;28;20040;-77
2022/09/01 04:29:40;;;;;;;4.78;1.75;;;;;;;13.36;100.00;101676.44;5074499;28;20065;-77
2022/09/01 04:32:14;;;;;;;5.93;1.45;;;;;;;13.36;100.00;101658.06;5052487;28;20049;-78
2022/09/01 04:34:40;;;;;;;7.30;1.60;;;;;;;13.39;100.00;101668.81;5055309;28;20045;-78
2022/09/01 04:37:17;;;;;;;9.98;1.77;;;;;;;13.29;100.00;101665.00;5058087;28;20132;-77
2022/09/01 04:39:53;;;;;;;5.65;1.60;;;;;;;13.20;100.00;101676.72;5067050;28;20021;-77
2022/09/01 04:42:22;;;;;;;6.43;1.40;;;;;;;13.23;100.00;101670.97;5060945;28;20459;-77
2022/09/01 04:44:56;;;;;;;4.65;1.85;;;;;;;13.17;100.00;101666.84;5062373;28;20422;-77
2022/09/01 04:47:30;;;;;;;4.45;1.52;;;;;;;13.23;100.00;101676.47;5068361;28;20098;-78
2022/09/01 04:50:12;;;;;;;8.52;1.88;;;;;;;13.19;100.00;101669.47;5062731;28;20068;-78
2022/09/01 04:52:43;;;;;;;5.88;2.17;;;;;;;13.31;100.00;101679.50;5021950;28;20037;-79
2022/09/01 04:55:17;;;;;;;4.80;1.50;;;;;;;13.21;100.00;101672.97;5077254;28;20051;-78
2022/09/01 04:57:48;;;;;;;7.07;1.67;;;;;;;13.23;100.00;101670.97;5054337;28;20091;-77
2022/09/01 05:00:25;;;;;;;6.88;1.38;;;;;;;13.25;100.00;101671.75;5055056;28;20452;-77
2022/09/01 05:03:03;;;;;;;10.77;1.65;;;;;;;13.27;100.00;101672.50;5052112;28;20125;-77
2022/09/01 05:05:41;;;;;;;3.28;1.50;;;;;;;13.30;100.00;101686.03;5057650;28;20464;-78
2022/09/01 05:08:22;;;;;;;12.00;1.77;;;;;;;13.19;100.00;101681.34;5075513;28;20036;-77
2022/09/01 05:10:52;;;;;;;8.85;1.65;;;;;;;13.17;100.00;101680.59;5057103;28;20119;-77
2022/09/01 05:13:21;;;;;;;7.40;1.52;;;;;;;13.15;100.00;101684.44;5055207;28;20055;-77
2022/09/01 05:16:04;;;;;;;11.48;2.35;;;;;;;13.15;100.00;101678.94;5062765;28;20116;-77
2022/09/01 05:18:31;;;;;;;16.88;1.98;;;;;;;13.24;100.00;101679.09;5054835;28;20037;-77
2022/09/01 05:20:57;;;;;;;5.10;1.60;;;;;;;13.20;100.00;101687.75;5068451;28;20051;-77
2022/09/01 05:23:25;;;;;;;12.98;1.67;;;;;;;13.33;100.00;101680.31;5068833;28;20059;-77
2022/09/01 05:25:53;;;;;;;9.50;2.03;;;;;;;13.37;100.00;101683.69;5071852;28;20061;-78
2022/09/01 05:28:24;;;;;;;7.85;1.95;;;;;;;13.40;100.00;101676.09;5071870;28;20546;-78
2022/09/01 05:30:54;;;;;;;10.75;1.67;;;;;;;13.55;100.00;101689.63;5062244;28;20025;-77
2022/09/01 05:33:20;;;;;;;23.63;1.75;;;;;;;13.44;100.00;101686.84;5066721;28;20052;-77
2022/09/01 05:35:59;;;;;;;8.07;1.80;;;;;;;13.50;100.00;101683.63;5060658;28;20507;-77
2022/09/01 05:38:24;;;;;;;26.88;2.50;;;;;;;13.50;100.00;101686.38;5043586;28;20400;-77
2022/09/01 05:40:56;;;;;;;11.13;1.80;;;;;;;13.62;100.00;101679.03;5071293;28;20052;-78
2022/09/01 05:43:28;;;;;;;12.35;2.30;;;;;;;13.68;100.00;101693.19;5074254;28;20047;-77
2022/09/01 05:45:57;;;;;;;15.82;1.83;;;;;;;13.79;100.00;101689.59;5045071;28;20040;-78
2022/09/01 05:48:23;;;;;;;10.35;2.05;;;;;;;13.90;100.00;101692.34;5073331;28;20037;-78
2022/09/01 05:50:55;;;;;;;6.32;1.83;;;;;;;13.90;100.00;101699.72;5059912;28;20067;-78
2022/09/01 05:53:29;;;;;;;11.02;1.70;;;;;;;13.93;100.00;101692.09;5054549;28;20021;-77
2022/09/01 05:56:05;;;;;;;13.40;1.73;;;;;;;13.94;100.00;101691.09;5042010;28;20388;-77
2022/09/01 05:58:33;;;;;;;17.85;1.90;;;;;;;14.00;100.00;101700.72;5035086;28;20033;-77
2022/09/01 06:01:02;;;;;;;24.90;2.15;;;;;;;14.10;100.00;101703.63;5062198;28;20033;-77
2022/09/01 06:03:28;;;;;;;22.60;2.20;;;;;;;14.17;100.00;101691.13;5057216;28;20033;-76
2022/09/01 06:06:00;;;;;;;51.92;2.60;;;;;;;14.39;100.00;101697.66;5053576;28;20057;-77
2022/09/01 06:08:31;;;;;;;16.05;2.00;;;;;;;14.42;100.00;101703.78;5038784;28;20040;-77
2022/09/01 06:11:11;;;;;;;20.52;1.88;;;;;;;14.50;100.00;101706.78;5037831;28;20039;-77
2022/09/01 06:13:38;;;;;;;23.40;2.00;;;;;;;14.57;100.00;101709.03;5066453;28;20037;-77
2022/09/01 06:16:10;;;;;;;34.17;2.55;;;;;;;14.60;100.00;101704.16;5054023;28;20043;-76
2022/09/01 06:18:42;;;;;;;7.28;1.45;;;;;;;14.48;100.00;101711.53;5055154;28;20032;-77
2022/09/01 06:21:13;;;;;;;17.92;1.88;;;;;;;14.60;100.00;101711.56;5053569;28;20051;-76
2022/09/01 06:23:49;;;;;;;7.70;1.67;;;;;;;14.70;100.00;101712.56;5055535;28;20025;-77
2022/09/01 06:26:29;;;;;;;17.33;1.92;;;;;;;15.04;100.00;101710.59;5069320;28;20038;-76
2022/09/01 06:29:05;;;;;;;13.38;1.60;;;;;;;15.65;100.00;101702.72;5062484;28;20040;-76
2022/09/01 06:31:33;;;;;;;6.20;1.45;;;;;;;16.05;100.00;101697.31;5053993;28;20037;-76
2022/09/01 06:34:10;;;;;;;6.22;1.65;;;;;;;16.25;100.00;101703.84;5059248;28;20040;-77
2022/09/01 06:36:39;;;;;;;20.73;1.90;;;;;;;15.94;100.00;101702.97;5068683;28;20036;-77
2022/09/01 06:39:14;;;;;;;12.82;1.80;;;;;;;16.21;100.00;101710.66;5076263;28;20387;-76
2022/09/01 06:41:40;;;;;;;8.23;1.70;;;;;;;16.73;100.00;101710.59;5058237;28;20037;-76
2022/09/01 06:44:06;;;;;;;9.65;1.63;;;;;;;17.51;100.00;101718.16;5055596;28;20037;-77
2022/09/01 06:46:33;;;;;;;8.40;1.58;;;;;;;17.67;99.01;101704.59;5053085;28;20051;-77
2022/09/01 06:48:58;;;;;;;15.35;1.65;;;;;;;17.93;96.29;101720.66;5068293;28;20510;-76
2022/09/01 06:51:28;;;;;;;6.88;1.50;;;;;;;17.92;95.59;101718.88;5064862;28;20041;-77
2022/09/01 06:53:58;;;;;;;4.97;1.90;;;;;;;18.17;96.08;101714.63;5055523;28;20045;-76
2022/09/01 06:56:30;;;;;;;9.35;1.85;;;;;;;18.33;94.11;101713.97;5071178;28;20068;-76
2022/09/01 06:58:56;;;;;;;7.95;1.48;;;;;;;18.49;93.78;101718.88;5062342;28;20041;-76
2022/09/01 07:01:26;;;;;;;9.77;1.70;;;;;;;18.80;89.91;101719.47;5058312;28;20469;-76
2022/09/01 07:04:00;;;;;;;7.72;1.63;;;;;;;18.95;90.01;101721.75;5065499;28;20021;-77
2022/09/01 07:06:28;;;;;;;11.38;1.88;;;;;;;19.20;88.89;101720.13;5067420;28;20476;-77
2022/09/01 07:09:00;;;;;;;8.25;1.73;;;;;;;19.04;88.90;101721.69;5053266;28;20064;-76
2022/09/01 07:11:29;;;;;;;7.72;1.95;;;;;;;18.90;89.76;101720.31;5056017;28;20044;-77
2022/09/01 07:14:00;;;;;;;7.97;1.77;;;;;;;19.32;88.45;101709.69;5055474;28;20036;-77
2022/09/01 07:16:27;;;;;;;15.82;2.20;;;;;;;19.30;87.04;101718.16;5058092;28;20036;-76
2022/09/01 07:18:59;;;;;;;9.50;1.90;;;;;;;19.40;87.03;101718.09;5071921;28;20472;-76
2022/09/01 07:21:30;;;;;;;10.38;2.30;;;;;;;19.75;85.85;101724.66;5058884;28;20492;-77
2022/09/01 07:24:05;;;;;;;20.80;2.30;;;;;;;20.16;84.18;101728.66;5066664;28;20033;-77
2022/09/01 07:26:32;;;;;;;13.82;2.17;;;;;;;20.23;83.25;101722.44;5053808;28;20481;-77
2022/09/01 07:29:02;;;;;;;16.17;2.50;;;;;;;20.45;81.97;101721.03;5074401;28;20099;-77
2022/09/01 07:31:35;;;;;;;8.90;2.15;;;;;;;20.49;82.28;101720.50;5055306;28;20037;-77
2022/09/01 07:34:04;;;;;;;10.00;2.00;;;;;;;20.81;79.64;101715.28;5061965;28;20025;-76
2022/09/01 07:36:31;;;;;;;10.57;2.20;;;;;;;21.38;76.15;101723.84;5055556;28;20033;-76
2022/09/01 07:39:00;;;;;;;5.25;1.67;;;;;;;21.30;77.12;101723.81;5065527;28;20049;-76
2022/09/01 07:41:28;;;;;;;16.10;2.38;;;;;;;21.30;77.45;101721.03;5055943;28;20071;-76
2022/09/01 07:44:01;;;;;;;9.67;2.23;;;;;;;21.97;74.82;101722.81;5056463;28;20056;-76
2022/09/01 07:46:33;;;;;;;11.35;2.30;;;;;;;21.80;74.53;101728.41;5056859;28;20461;-76
2022/09/01 07:49:00;;;;;;;12.50;1.90;;;;;;;22.28;71.54;101728.53;5077147;28;20037;-76
2022/09/01 07:51:29;;;;;;;9.77;2.38;;;;;;;21.81;73.68;101730.16;5054950;28;20032;-76
2022/09/01 07:53:55;;;;;;;15.88;2.25;;;;;;;22.13;72.44;101727.53;5066613;28;20036;-77
2022/09/01 07:56:24;;;;;;;11.82;2.20;;;;;;;22.75;70.14;101722.16;5042846;28;20039;-75
2022/09/01 07:58:50;;;;;;;19.05;1.77;;;;;;;22.89;68.57;101722.44;5066367;28;20489;-76
2022/09/01 08:01:25;;;;;;;9.98;2.08;;;;;;;22.37;70.65;101723.84;5067396;28;20032;-76
2022/09/01 08:03:56;;;;;;;;;;;;;;;22.83;68.95;101723.19;5061157;28;20064;-76
2022/09/01 08:06:25;;;;;;;7.70;1.77;;;;;;;22.83;68.25;101726.84;5074898;28;19994;-75
2022/09/01 08:08:56;;;;;;;10.63;1.73;;;;;;;23.43;66.42;101730.91;5061238;28;20111;-77
2022/09/01 08:11:27;;;;;;;10.65;1.70;;;;;;;22.84;68.48;101733.28;5038277;28;20037;-76
2022/09/01 08:13:59;;;;;;;9.82;1.88;;;;;;;22.65;68.18;101734.59;5070215;28;20044;-76
2022/09/01 08:16:28;;;;;;;13.35;1.63;;;;;;;23.18;67.25;101732.97;5069333;28;20037;-77
2022/09/01 08:19:04;;;;;;;13.18;2.03;;;;;;;23.59;64.53;101732.69;5064235;28;20136;-76
2022/09/01 08:21:31;;;;;;;5.75;2.35;;;;;;;23.75;63.88;101722.47;5056251;28;20388;-77
2022/09/01 08:23:57;;;;;;;5.72;1.63;;;;;;;23.91;62.50;101727.94;5073709;28;20037;-77
2022/09/01 08:26:25;;;;;;;14.93;1.40;;;;;;;24.12;62.68;101734.75;5060836;28;20051;-77
2022/09/01 08:28:54;;;;;;;4.82;1.50;;;;;;;24.28;60.38;101730.91;5078188;28;20024;-77
2022/09/01 08:31:23;;;;;;;7.60;1.73;;;;;;;24.72;59.16;101730.09;5079129;28;20029;-77
2022/09/01 08:33:54;;;;;;;4.15;1.30;;;;;;;24.07;62.18;101726.94;5067664;28;20025;-77
2022/09/01 08:36:20;;;;;;;8.57;1.58;;;;;;;24.01;62.82;101727.69;5060297;28;20063;-77
2022/09/01 08:38:48;;;;;;;9.50;1.45;;;;;;;24.39;61.74;101731.31;5066102;28;20495;-77
2022/09/01 08:41:43;;;;;;;9.45;1.42;;;;;;;24.82;59.09;101730.66;5046639;28;20041;-77
2022/09/01 08:44:28;;;;;;;6.35;1.38;;;;;;;24.32;61.14;101726.69;5080366;28;20029;-77
2022/09/01 08:47:02;;;;;;;6.05;1.38;;;;;;;25.12;58.24;101725.00;5067885;28;20025;-77
2022/09/01 08:49:35;;;;;;;14.27;1.40;;;;;;;24.80;58.00;101721.59;5055795;28;20029;-77
2022/09/01 08:52:35;;;;;;;15.95;1.88;;;;;;;24.51;59.79;101728.91;5062916;28;20475;-78
2022/09/01 08:55:30;;;;;;;4.05;1.70;;;;;;;25.41;55.88;101731.66;5049699;28;20045;-78
2022/09/01 08:58:04;;;;;;;6.85;1.30;;;;;;;25.54;56.44;101730.94;5056172;28;20029;-77
2022/09/01 09:00:40;;;;;;;3.85;1.52;;;;;;;25.33;56.84;101732.63;5059463;28;20400;-77
2022/09/01 09:03:25;;;;;;;15.13;1.60;;;;;;;25.06;56.72;101725.81;5061297;28;20035;-77
2022/09/01 09:05:56;;;;;;;8.07;1.30;;;;;;;25.85;54.10;101728.63;5061159;28;20059;-77
2022/09/01 09:08:42;;;;;;;5.63;1.27;;;;;;;25.49;55.43;101729.56;5061041;28;20029;-77
2022/09/01 09:11:45;;;;;;;8.27;1.23;;;;;;;25.55;55.97;101719.50;5070240;28;20093;-78
2022/09/01 09:14:41;;;;;;;9.60;1.20;;;;;;;25.61;53.59;101720.63;5026275;28;20048;-77
2022/09/01 09:17:08;;;;;;;4.70;1.33;;;;;;;25.44;55.42;101725.66;5058084;28;20090;-77
2022/09/01 09:19:44;;;;;;;8.45;1.20;;;;;;;25.96;52.61;101720.81;5065099;28;20055;-77
2022/09/01 09:22:16;;;;;;;1.88;0.90;;;;;;;26.48;51.96;101712.97;5060645;28;20037;-77
2022/09/01 09:24:51;;;;;;;8.77;1.13;;;;;;;26.12;52.00;101722.41;5061211;28;20083;-77
2022/09/01 09:27:17;;;;;;;2.53;1.00;;;;;;;26.14;52.21;101715.53;5062974;28;20024;-77
2022/09/01 09:29:45;;;;;;;6.22;1.10;;;;;;;25.75;51.60;101710.44;5080677;28;20028;-78
2022/09/01 09:32:11;;;;;;;4.97;1.00;;;;;;;26.34;50.51;101712.88;5082996;28;20025;-78
2022/09/01 09:34:41;;;;;;;4.53;1.10;;;;;;;26.31;48.35;101707.66;5083367;28;20100;-77
2022/09/01 09:37:20;;;;;;;2.78;0.88;;;;;;;26.36;49.80;101702.31;5084477;28;20048;-78
2022/09/01 09:40:21;;;;;;;5.85;1.10;;;;;;;26.04;50.26;101701.88;5061764;28;20025;-78
2022/09/01 09:42:53;;;;;;;5.55;1.10;;;;;;;26.73;47.35;101696.53;5079934;28;20477;-79
2022/09/01 09:45:36;;;;;;;4.57;1.15;;;;;;;26.42;46.39;101697.81;5060560;28;20024;-79
2022/09/01 09:48:09;;;;;;;5.75;1.00;;;;;;;26.88;45.19;101693.56;5065525;28;20033;-78
2022/09/01 09:50:45;;;;;;;2.17;0.80;;;;;;;26.35;44.59;101686.53;5068587;28;20021;-78
2022/09/01 09:53:17;;;;;;;1.63;0.85;;;;;;;26.37;44.13;101697.56;5083217;28;20044;-78
2022/09/01 09:56:15;;;;;;;4.32;0.90;;;;;;;26.17;43.06;101686.19;5063911;28;20039;-78
2022/09/01 09:58:42;;;;;;;5.60;0.98;;;;;;;26.76;41.45;101696.06;5066135;28;20104;-78
2022/09/01 10:01:27;;;;;;;3.45;0.70;;;;;;;26.40;42.07;101697.16;5064201;28;20116;-78
2022/09/01 10:03:57;;;;;;;4.75;0.90;;;;;;;26.65;41.43;101691.06;5063427;28;20029;-77
2022/09/01 10:06:39;;;;;;;1.33;0.85;;;;;;;26.70;42.17;101686.53;5064030;28;20029;-78
2022/09/01 10:09:15;;;;;;;7.07;0.90;;;;;;;26.54;41.73;101684.91;5065628;28;20041;-78
2022/09/01 10:11:47;;;;;;;8.93;1.00;;;;;;;26.42;42.30;101678.16;5065800;28;20047;-78
2022/09/01 10:14:20;;;;;;;7.80;0.85;;;;;;;26.44;43.28;101673.19;5067180;28;20029;-78
2022/09/01 10:17:09;;;;;;;7.65;0.70;;;;;;;25.32;45.75;101672.03;5066319;28;20045;-77
2022/09/01 10:19:39;;;;;;;13.73;0.95;;;;;;;25.85;44.19;101668.84;5083413;28;20037;-77
2022/09/01 10:22:04;;;;;;;1.38;0.85;;;;;;;26.41;42.17;101668.84;5099955;28;20033;-78
2022/09/01 10:24:36;;;;;;;7.53;0.95;;;;;;;26.74;41.53;101672.94;5087865;28;20521;-77
2022/09/01 10:27:16;;;;;;;7.28;1.17;;;;;;;26.06;41.74;101664.31;5073170;28;20029;-77
2022/09/01 10:29:50;;;;;;;3.88;0.80;;;;;;;25.70;40.71;101665.28;5072763;28;20021;-77
2022/09/01 10:32:21;;;;;;;2.83;0.70;;;;;;;26.42;40.84;101661.31;5069792;28;20033;-77
2022/09/01 10:34:48;;;;;;;2.67;0.70;;;;;;;26.62;40.74;101655.78;5082757;28;20016;-77
2022/09/01 10:37:15;;;;;;;1.42;0.70;;;;;;;27.00;40.47;101660.09;5064392;28;20057;-77
2022/09/01 10:40:04;;;;;;;;;;;;;;;26.62;39.71;101660.56;5083123;28;20043;-77
2022/09/01 10:42:32;;;;;;;5.47;0.70;;;;;;;26.46;39.98;101653.31;5085767;28;19986;-77
2022/09/01 10:45:00;;;;;;;5.88;0.90;;;;;;;26.44;39.03;101647.06;5083978;28;20029;-77
2022/09/01 10:47:32;;;;;;;4.93;0.70;;;;;;;26.72;38.62;101649.81;5078638;28;20045;-77
2022/09/01 10:50:04;;;;;;;1.55;0.60;;;;;;;26.86;38.16;101646.00;5067258;28;20090;-77
2022/09/01 10:52:40;;;;;;;2.72;0.80;;;;;;;26.57;39.05;101649.94;5066660;28;20491;-77
2022/09/01 10:55:16;;;;;;;5.13;0.80;;;;;;;26.67;37.29;101647.63;5048850;28;20100;-77
2022/09/01 10:58:03;;;;;;;4.50;0.85;;;;;;;27.00;36.97;101649.69;5065586;28;20414;-77
2022/09/01 11:00:29;;;;;;;2.03;0.65;;;;;;;26.44;37.00;101649.88;5061790;28;20045;-78
2022/09/01 11:03:14;;;;;;;6.05;0.88;;;;;;;26.34;37.65;101642.66;5061444;28;20038;-77
2022/09/01 11:06:01;;;;;;;3.25;0.65;;;;;;;26.86;36.37;101646.00;5072640;28;20028;-77
2022/09/01 11:08:26;;;;;;;2.42;0.77;;;;;;;26.55;36.29;101640.84;5071770;28;20380;-77
2022/09/01 11:11:05;;;;;;;1.30;0.68;;;;;;;26.87;35.53;101639.28;5085272;28;20131;-77
2022/09/01 11:13:47;;;;;;;1.27;0.57;;;;;;;26.72;35.78;101635.75;5084671;28;20476;-77
2022/09/01 11:16:26;;;;;;;3.13;0.60;;;;;;;26.89;34.90;101634.31;5068320;28;20032;-77
2022/09/01 11:18:52;;;;;;;2.78;0.57;;;;;;;26.83;36.28;101643.59;5078217;28;20029;-78
2022/09/01 11:21:32;;;;;;;5.28;0.88;;;;;;;26.85;34.84;101630.19;5063971;28;20124;-77
2022/09/01 11:24:35;;;;;;;4.93;0.80;;;;;;;26.53;35.80;101621.41;5069406;28;20029;-77
2022/09/01 11:27:00;;;;;;;2.28;0.60;;;;;;;26.57;36.08;101627.47;5045976;28;20037;-77
2022/09/01 11:29:54;;;;;;;6.07;0.63;;;;;;;26.70;34.47;101630.34;5063289;28;20029;-77
2022/09/01 11:32:36;;;;;;;2.58;0.50;;;;;;;26.11;34.81;101634.53;5059184;28;20457;-77
2022/09/01 11:35:13;;;;;;;4.35;0.75;;;;;;;26.18;34.62;101621.41;5060273;28;20095;-77
2022/09/01 11:37:48;;;;;;;;;;;;;;;26.00;34.14;101627.53;5060783;28;20557;-77
2022/09/01 11:40:22;;;;;;;2.78;0.65;;;;;;;26.14;34.01;101620.09;5059374;28;19913;-77
2022/09/01 11:42:52;;;;;;;1.55;0.65;;;;;;;25.74;34.50;101614.16;5077927;28;20422;-77
2022/09/01 11:45:22;;;;;;;1.92;0.60;;;;;;;26.11;34.10;101617.69;5080552;28;20031;-77
2022/09/01 11:47:56;;;;;;;2.22;0.60;;;;;;;25.99;32.71;101623.03;5079549;28;20028;-77
2022/09/01 11:50:28;;;;;;;3.40;0.57;;;;;;;25.71;33.14;101616.50;5079715;28;20117;-77